Decoded Metar for KXNA (BENTONVILLE (NW) in AR, USA) (IATA:XNA) | Meteo·Mobile Aviation Weather
aviador You're here:

KXNA Decoded Metar

BENTONVILLE (NW) in AR, USA
Report Time2018-09-21 02:53:00
UTC Time2018-09-21 03:50:58
Flight Rules vfr VFR
Wind190° at 07 kt
W.Decomp.*RWY 17: 6.7 kt HW 1.9 kt RCW
RWY 16: 6.3 kt HW 3.1 kt RCW
W.Rank190° ranks 2
Current wind is below 190° avg. (9.3)
Visibility9999 m
Phenomena:N/A
Clouds:N/A
Expected CloudBase > 2,800 ft AGL from Temp-Dew spread
CeilingNone
Temp25°C (ISA +13)
Dew Point18°C (65% RH)
QNH1015 hPa
Density Alt2,949 ft
Elevation1,286 ft
Report Wrong Elevation
Raw Report
KXNA 210253Z 19007KT 10SM CLR 25/18 A2996 RMK AO2 SLP129 T02500183
53016=

Extra information for KXNA:More info

Metar Taf Metar & Taf Last 4 Metars F.Rules Stats Wind Profile Meteogram Temp Stats Airport Information Weather charts Add Link Nearby VenuesMetar ALERT Operation Metar Decoded Social comments

AIRNAV info for KXNA